Time;durP1;ratioP1;P1;durP2;ratioP2;P2;SDS_P1;SDS_P2;PMS_P1;PMS_P2;Temp;Humidity;BMP_temperature;BMP_pressure;BME280_temperature;BME280_humidity;BME280_pressure;Samples;Min_cycle;Max_cycle;Signal;HPM_P1;HPM_P2
2022/02/28 00:01:39;;;;;;;21.60;20.70;;;18.10;49.80;;;;;;5031441;28;20485;-43
2022/02/28 00:04:06;;;;;;;21.83;20.93;;;18.10;49.80;;;;;;5031421;28;20442;-45
2022/02/28 00:06:33;;;;;;;21.67;20.67;;;18.10;49.90;;;;;;5031601;28;20456;-44
2022/02/28 00:09:00;;;;;;;21.70;20.80;;;18.10;50.00;;;;;;5031368;28;21090;-43
2022/02/28 00:11:26;;;;;;;21.47;20.50;;;18.00;50.00;;;;;;5031369;28;20445;-42
2022/02/28 00:13:53;;;;;;;21.63;20.73;;;18.00;50.00;;;;;;5031126;28;21067;-44
2022/02/28 00:16:20;;;;;;;21.60;20.70;;;18.00;50.00;;;;;;5031682;28;20449;-42
2022/02/28 00:18:48;;;;;;;22.23;21.13;;;17.90;50.00;;;;;;5031465;28;20465;-44
2022/02/28 00:21:14;;;;;;;21.90;20.90;;;17.90;50.70;;;;;;5031410;28;20456;-43
2022/02/28 00:23:41;;;;;;;21.90;21.00;;;17.90;50.10;;;;;;5031162;28;20939;-43
2022/02/28 00:26:08;;;;;;;22.00;21.00;;;17.80;50.20;;;;;;5031560;28;20458;-42
2022/02/28 00:28:35;;;;;;;23.23;22.13;;;17.80;50.20;;;;;;5031159;28;20445;-45
2022/02/28 00:31:01;;;;;;;22.00;21.00;;;17.80;50.30;;;;;;5031274;28;20460;-42
2022/02/28 00:33:28;;;;;;;22.50;21.50;;;17.80;50.30;;;;;;5030925;28;20854;-44
2022/02/28 00:35:56;;;;;;;21.57;20.67;;;17.80;50.30;;;;;;5031383;28;20453;-41
2022/02/28 00:38:24;;;;;;;22.10;21.00;;;17.70;50.30;;;;;;5031107;28;20452;-41
2022/02/28 00:40:51;;;;;;;21.90;20.90;;;17.70;50.40;;;;;;5031615;28;20476;-42
2022/02/28 00:43:18;;;;;;;21.20;20.40;;;17.70;50.40;;;;;;5035108;28;20441;-42
2022/02/28 00:45:45;;;;;;;22.80;21.80;;;17.70;50.40;;;;;;5034773;28;20467;-42
2022/02/28 00:48:11;;;;;;;21.60;20.70;;;17.60;50.90;;;;;;5034685;28;20449;-42
2022/02/28 00:50:38;;;;;;;22.20;21.20;;;17.60;51.00;;;;;;5034818;28;20469;-44
2022/02/28 00:53:06;;;;;;;22.43;21.43;;;17.60;50.50;;;;;;5034774;28;20441;-41
2022/02/28 00:55:33;;;;;;;22.30;21.23;;;17.60;50.50;;;;;;5034822;28;20445;-41
2022/02/28 00:58:00;;;;;;;21.47;20.57;;;17.60;50.60;;;;;;5034366;28;20449;-42
2022/02/28 01:00:27;;;;;;;21.90;20.90;;;17.50;50.60;;;;;;5034858;28;20473;-42
2022/02/28 01:02:53;;;;;;;22.00;20.90;;;17.50;50.60;;;;;;5034688;28;20800;-42
2022/02/28 01:05:21;;;;;;;22.47;21.47;;;17.50;50.70;;;;;;5034742;28;20441;-42
2022/02/28 01:07:49;;;;;;;21.80;20.80;;;17.40;50.70;;;;;;5034465;28;20534;-42
2022/02/28 01:10:19;;;;;;;21.27;20.37;;;17.40;50.70;;;;;;5034212;28;20481;-42
2022/02/28 01:12:46;;;;;;;21.40;20.50;;;17.40;50.70;;;;;;5034712;28;20536;-42
2022/02/28 01:15:14;;;;;;;21.93;20.93;;;17.40;50.80;;;;;;5034362;28;20485;-42
2022/02/28 01:17:42;;;;;;;21.87;20.93;;;17.40;50.80;;;;;;5034242;28;20579;-42
2022/02/28 01:20:10;;;;;;;21.73;20.83;;;17.30;50.80;;;;;;5034163;28;20501;-42
2022/02/28 01:22:38;;;;;;;21.97;20.97;;;17.30;50.80;;;;;;5033972;28;20974;-42
2022/02/28 01:25:06;;;;;;;22.10;21.10;;;17.30;50.80;;;;;;5034108;28;20951;-42
2022/02/28 01:27:34;;;;;;;22.00;20.90;;;17.30;50.90;;;;;;5034339;28;20456;-42
2022/02/28 01:30:01;;;;;;;22.23;21.23;;;17.20;50.90;;;;;;5034029;28;20476;-42
2022/02/28 01:32:28;;;;;;;21.40;20.50;;;17.20;50.90;;;;;;5033812;28;20458;-42
2022/02/28 01:34:55;;;;;;;21.70;20.70;;;17.20;51.00;;;;;;5034113;28;20481;-42
2022/02/28 01:37:22;;;;;;;21.70;20.80;;;17.20;51.10;;;;;;5033939;28;20452;-42
2022/02/28 01:39:49;;;;;;;21.73;20.83;;;17.20;51.00;;;;;;5033800;28;20472;-41
2022/02/28 01:42:16;;;;;;;21.00;20.10;;;17.20;51.00;;;;;;5033970;28;20819;-42
2022/02/28 01:44:45;;;;;;;21.60;20.60;;;17.20;51.00;;;;;;5033732;28;20449;-46
2022/02/28 01:47:12;;;;;;;21.70;20.80;;;17.10;51.00;;;;;;5014127;28;20936;-42
2022/02/28 01:49:39;;;;;;;21.73;20.83;;;17.10;51.50;;;;;;5013699;28;20843;-42
2022/02/28 01:52:06;;;;;;;22.60;21.60;;;17.10;51.00;;;;;;5014014;28;20508;-42
2022/02/28 01:54:33;;;;;;;21.43;20.50;;;17.10;51.00;;;;;;5013321;28;20489;-45
2022/02/28 01:57:00;;;;;;;21.57;20.57;;;17.10;51.00;;;;;;5013952;28;20454;-42
2022/02/28 01:59:27;;;;;;;21.10;20.20;;;17.10;51.10;;;;;;5032601;28;20868;-42
2022/02/28 02:01:55;;;;;;;21.60;20.70;;;17.10;51.10;;;;;;5033562;28;20519;-45
2022/02/28 02:04:22;;;;;;;21.53;20.53;;;17.00;51.10;;;;;;5033770;28;20441;-43
2022/02/28 02:06:49;;;;;;;21.23;20.33;;;17.00;51.10;;;;;;5033621;28;20460;-41
2022/02/28 02:09:16;;;;;;;21.43;20.53;;;17.00;51.10;;;;;;5033083;28;20473;-45
2022/02/28 02:11:43;;;;;;;21.50;20.60;;;17.00;51.10;;;;;;5033370;28;21001;-46
2022/02/28 02:14:11;;;;;;;20.80;20.00;;;17.00;51.20;;;;;;5033235;28;20481;-45
2022/02/28 02:16:39;;;;;;;21.67;20.67;;;17.00;51.30;;;;;;5033240;28;20962;-43
2022/02/28 02:19:07;;;;;;;21.87;20.87;;;17.00;51.20;;;;;;5032900;28;20807;-42
2022/02/28 02:21:36;;;;;;;21.53;20.60;;;16.90;51.10;;;;;;5033027;28;20441;-45
2022/02/28 02:24:03;;;;;;;21.40;20.50;;;16.90;51.20;;;;;;5033165;28;20796;-43
2022/02/28 02:26:29;;;;;;;21.67;20.67;;;16.90;51.20;;;;;;5033393;28;20452;-42
2022/02/28 02:28:56;;;;;;;21.83;20.83;;;16.90;51.20;;;;;;5032815;28;20497;-42
2022/02/28 02:31:23;;;;;;;21.57;20.67;;;16.90;51.30;;;;;;5033201;28;20452;-44
2022/02/28 02:33:51;;;;;;;22.27;21.27;;;16.90;51.30;;;;;;5032698;28;20994;-42
2022/02/28 02:36:18;;;;;;;21.93;20.93;;;16.90;51.30;;;;;;5032865;28;20523;-42
2022/02/28 02:38:47;;;;;;;22.07;21.07;;;16.80;51.20;;;;;;5032014;28;20480;-43
2022/02/28 02:41:14;;;;;;;21.63;20.73;;;16.80;51.30;;;;;;5032674;28;20449;-42
2022/02/28 02:43:41;;;;;;;21.67;20.77;;;16.80;51.30;;;;;;5032703;28;20820;-42
2022/02/28 02:46:08;;;;;;;21.63;20.73;;;16.80;51.40;;;;;;5032653;28;20446;-42
2022/02/28 02:48:34;;;;;;;21.57;20.57;;;16.80;51.30;;;;;;5032447;28;20814;-43
2022/02/28 02:51:01;;;;;;;21.80;20.80;;;16.80;51.40;;;;;;5032540;28;20441;-42
2022/02/28 02:53:28;;;;;;;21.97;20.87;;;16.70;51.40;;;;;;5032843;28;20443;-44
2022/02/28 02:55:56;;;;;;;21.20;20.30;;;16.70;51.40;;;;;;5032428;28;20488;-44
2022/02/28 02:58:23;;;;;;;21.73;20.73;;;16.70;51.40;;;;;;5031876;28;20453;-41
2022/02/28 03:00:52;;;;;;;21.90;20.67;;;16.70;51.40;;;;;;5032455;28;20437;-42
2022/02/28 03:03:22;;;;;;;21.77;20.77;;;16.70;51.40;;;;;;5032683;28;20454;-42
2022/02/28 03:05:49;;;;;;;22.00;21.00;;;16.70;51.50;;;;;;5031737;28;20472;-43
2022/02/28 03:08:16;;;;;;;22.20;21.20;;;16.70;51.60;;;;;;5031975;28;20460;-43
2022/02/28 03:10:43;;;;;;;22.20;21.20;;;16.70;51.60;;;;;;5032117;28;20476;-44
2022/02/28 03:13:11;;;;;;;22.33;21.23;;;16.60;51.60;;;;;;5032259;28;20452;-42
2022/02/28 03:15:38;;;;;;;21.80;20.80;;;16.60;51.60;;;;;;5032376;28;20516;-44
2022/02/28 03:18:05;;;;;;;21.60;20.60;;;16.60;51.70;;;;;;5031945;28;20446;-43
2022/02/28 03:20:32;;;;;;;21.90;20.90;;;16.50;51.70;;;;;;5031777;28;20807;-42
2022/02/28 03:22:58;;;;;;;21.30;20.40;;;16.50;51.70;;;;;;5032149;28;20449;-43
2022/02/28 03:25:25;;;;;;;21.83;20.93;;;16.50;51.80;;;;;;5032149;28;20796;-42
2022/02/28 03:27:52;;;;;;;21.90;20.80;;;16.50;51.90;;;;;;5031867;28;20446;-44
2022/02/28 03:30:20;;;;;;;21.80;20.70;;;16.50;51.90;;;;;;5031629;28;20469;-42
2022/02/28 03:32:47;;;;;;;21.67;20.67;;;16.50;51.90;;;;;;5031964;28;20827;-45
2022/02/28 03:35:14;;;;;;;21.57;20.57;;;16.40;51.90;;;;;;5031786;28;20484;-42
2022/02/28 03:37:40;;;;;;;21.70;20.70;;;16.40;52.00;;;;;;5031768;28;20945;-43
2022/02/28 03:40:09;;;;;;;21.97;20.70;;;16.40;52.00;;;;;;5031298;28;20477;-42
2022/02/28 03:42:36;;;;;;;21.80;20.70;;;16.40;52.00;;;;;;5031795;28;20943;-42
2022/02/28 03:45:03;;;;;;;22.13;21.03;;;16.40;52.10;;;;;;5031884;28;20441;-42
2022/02/28 03:47:31;;;;;;;22.43;21.43;;;16.40;52.20;;;;;;5031759;28;20958;-42
2022/02/28 03:49:58;;;;;;;21.83;20.83;;;16.40;52.10;;;;;;5031508;28;20480;-42
2022/02/28 03:52:25;;;;;;;22.03;21.03;;;16.30;52.20;;;;;;5031470;28;20453;-42
2022/02/28 03:54:52;;;;;;;21.53;20.60;;;16.30;52.20;;;;;;5031728;28;20481;-42
2022/02/28 03:57:18;;;;;;;21.20;20.30;;;16.30;52.20;;;;;;5031727;28;20449;-42
2022/02/28 03:59:45;;;;;;;21.70;20.70;;;16.30;52.20;;;;;;5031442;28;20473;-43
2022/02/28 04:02:12;;;;;;;21.10;20.20;;;16.30;52.30;;;;;;5031604;28;20819;-44
2022/02/28 04:04:40;;;;;;;21.83;20.83;;;16.20;52.20;;;;;;5031354;28;20437;-42
2022/02/28 04:07:07;;;;;;;22.00;21.00;;;16.20;52.20;;;;;;5031394;28;20449;-42
2022/02/28 04:09:34;;;;;;;22.10;21.10;;;16.20;52.30;;;;;;5031279;28;20477;-42
2022/02/28 04:12:02;;;;;;;21.47;20.57;;;16.20;52.40;;;;;;5031508;28;20465;-43
2022/02/28 04:14:29;;;;;;;21.63;20.73;;;16.20;52.50;;;;;;5031204;28;20481;-43
2022/02/28 04:16:55;;;;;;;21.87;20.87;;;16.20;52.50;;;;;;5013825;28;20446;-42
2022/02/28 04:19:22;;;;;;;22.30;21.27;;;16.10;52.50;;;;;;5015381;28;20485;-44
2022/02/28 04:21:51;;;;;;;21.47;20.57;;;16.10;52.60;;;;;;5015623;28;20450;-42
2022/02/28 04:24:17;;;;;;;21.97;20.87;;;16.10;52.60;;;;;;5015636;28;20459;-42
2022/02/28 04:26:45;;;;;;;21.23;20.27;;;16.10;52.60;;;;;;5018553;28;20649;-41
2022/02/28 04:29:13;;;;;;;21.30;20.30;;;16.10;52.70;;;;;;5035067;28;20461;-41
2022/02/28 04:31:40;;;;;;;21.27;20.37;;;16.10;52.60;;;;;;5035311;28;20445;-42
2022/02/28 04:34:07;;;;;;;21.50;20.50;;;16.00;52.70;;;;;;5035156;28;20449;-41
2022/02/28 04:36:34;;;;;;;21.20;20.30;;;16.00;52.90;;;;;;5035196;28;20813;-40
2022/02/28 04:39:03;;;;;;;21.43;20.43;;;16.00;52.90;;;;;;5034616;28;20465;-42
2022/02/28 04:41:30;;;;;;;22.00;21.00;;;16.00;52.90;;;;;;5035029;28;20445;-41
2022/02/28 04:43:56;;;;;;;21.17;20.17;;;16.00;53.00;;;;;;5035074;28;20471;-42
2022/02/28 04:46:23;;;;;;;21.20;20.30;;;16.00;53.00;;;;;;5035144;28;20450;-41
2022/02/28 04:48:50;;;;;;;21.07;20.17;;;16.00;53.00;;;;;;5034608;28;20838;-41
2022/02/28 04:51:17;;;;;;;21.40;20.47;;;16.00;53.60;;;;;;5034699;28;20472;-41
2022/02/28 04:53:43;;;;;;;22.07;21.07;;;15.90;53.00;;;;;;5034734;28;20445;-42
2022/02/28 04:56:12;;;;;;;22.27;21.13;;;15.90;53.10;;;;;;5034692;28;20497;-40
2022/02/28 04:58:39;;;;;;;21.80;20.80;;;15.90;53.20;;;;;;5034520;28;20468;-44
2022/02/28 05:01:05;;;;;;;22.63;21.53;;;15.90;53.20;;;;;;5034985;28;20955;-44
2022/02/28 05:03:32;;;;;;;22.20;21.10;;;15.90;53.20;;;;;;5034543;28;20449;-44
2022/02/28 05:05:59;;;;;;;21.70;20.70;;;15.80;53.20;;;;;;5034502;28;20449;-43
2022/02/28 05:08:25;;;;;;;22.70;21.70;;;15.80;53.30;;;;;;5034422;28;20445;-43
2022/02/28 05:10:52;;;;;;;22.00;20.90;;;15.80;53.40;;;;;;5034485;28;20445;-43
2022/02/28 05:13:20;;;;;;;22.40;21.30;;;15.80;53.40;;;;;;5034603;28;20453;-44
2022/02/28 05:15:47;;;;;;;21.83;20.83;;;15.80;53.80;;;;;;5034131;28;20479;-43
2022/02/28 05:18:14;;;;;;;21.77;20.77;;;15.80;53.60;;;;;;5034001;28;20449;-43
2022/02/28 05:20:41;;;;;;;21.50;20.50;;;15.80;53.70;;;;;;5034321;28;20833;-44
2022/02/28 05:23:07;;;;;;;21.50;20.40;;;15.80;53.80;;;;;;5034500;28;20478;-47
2022/02/28 05:25:34;;;;;;;22.70;21.60;;;15.80;53.80;;;;;;5034300;28;20543;-41
2022/02/28 05:28:01;;;;;;;22.23;21.13;;;15.70;53.90;;;;;;5032937;28;20446;-43
2022/02/28 05:30:29;;;;;;;21.90;20.90;;;15.70;54.00;;;;;;5033957;28;20465;-45
2022/02/28 05:32:56;;;;;;;21.93;20.93;;;15.70;54.00;;;;;;5034164;28;20797;-43
2022/02/28 05:35:23;;;;;;;21.70;20.60;;;15.70;54.20;;;;;;5033901;28;20485;-42
2022/02/28 05:37:49;;;;;;;22.07;21.07;;;15.70;54.20;;;;;;5034085;28;20449;-42
2022/02/28 05:40:16;;;;;;;21.90;20.80;;;15.70;54.30;;;;;;5033486;28;20473;-45
2022/02/28 05:42:43;;;;;;;21.80;20.77;;;15.70;54.40;;;;;;5033887;28;20515;-44
2022/02/28 05:45:10;;;;;;;22.40;21.23;;;15.60;54.30;;;;;;5034045;28;20858;-44
2022/02/28 05:47:42;;;;;;;22.23;21.13;;;15.60;54.40;;;;;;5033893;28;20947;-44
2022/02/28 05:50:09;;;;;;;22.73;21.50;;;15.70;55.00;;;;;;5033717;28;20497;-41
2022/02/28 05:52:36;;;;;;;22.70;21.50;;;16.30;57.20;;;;;;5033611;28;20791;-41
2022/02/28 05:55:03;;;;;;;25.13;23.40;;;16.70;56.80;;;;;;5033500;28;20481;-42
2022/02/28 05:57:34;;;;;;;23.80;22.40;;;17.00;58.80;;;;;;5033654;28;20441;-42
2022/02/28 06:00:00;;;;;;;24.73;23.03;;;17.20;59.90;;;;;;5033107;28;20477;-43
2022/02/28 06:02:27;;;;;;;31.57;29.83;;;17.50;60.00;;;;;;5033517;28;20460;-45
2022/02/28 06:04:55;;;;;;;29.30;27.90;;;17.70;59.40;;;;;;5033288;28;20785;-43
2022/02/28 06:07:22;;;;;;;34.37;32.50;;;17.80;58.70;;;;;;5033471;28;20457;-43
2022/02/28 06:09:49;;;;;;;36.93;35.13;;;18.00;58.00;;;;;;5033102;28;20472;-45
2022/02/28 06:12:15;;;;;;;31.67;30.07;;;18.10;57.10;;;;;;5033247;28;20449;-46
2022/02/28 06:14:42;;;;;;;33.17;31.57;;;18.20;56.40;;;;;;5033259;28;20460;-43
2022/02/28 06:17:09;;;;;;;32.97;31.00;;;18.20;55.70;;;;;;5033273;28;20931;-44
2022/02/28 06:19:35;;;;;;;35.67;33.87;;;18.30;55.20;;;;;;5033110;28;21006;-47
2022/02/28 06:22:04;;;;;;;33.87;31.93;;;18.40;54.80;;;;;;5033486;28;20446;-45
2022/02/28 06:24:30;;;;;;;34.87;33.37;;;18.40;54.20;;;;;;5033083;28;20811;-45
2022/02/28 06:26:57;;;;;;;38.73;36.83;;;18.50;53.80;;;;;;5033142;28;20490;-46
2022/02/28 06:29:24;;;;;;;30.10;28.20;;;18.50;53.40;;;;;;5032741;28;20465;-45
2022/02/28 06:31:51;;;;;;;32.83;31.03;;;18.60;53.10;;;;;;5033030;28;20452;-44
2022/02/28 06:34:17;;;;;;;37.13;35.30;;;18.60;52.80;;;;;;5033015;28;20445;-46
2022/02/28 06:36:44;;;;;;;34.60;32.57;;;18.60;52.40;;;;;;5032822;28;21017;-46
2022/02/28 06:39:13;;;;;;;35.80;34.20;;;18.70;52.30;;;;;;5032407;28;20971;-47
2022/02/28 06:41:40;;;;;;;33.93;32.20;;;18.70;52.00;;;;;;5033034;28;20460;-44
2022/02/28 06:44:07;;;;;;;34.23;32.40;;;18.70;51.80;;;;;;5032991;28;20445;-47
2022/02/28 06:46:35;;;;;;;33.97;32.37;;;18.70;51.60;;;;;;5032740;28;20447;-45
2022/02/28 06:49:03;;;;;;;31.93;30.13;;;18.70;51.40;;;;;;5032344;28;21039;-46
2022/02/28 06:51:29;;;;;;;37.03;35.23;;;18.70;51.20;;;;;;5032640;28;20456;-47
2022/02/28 06:53:56;;;;;;;34.57;32.97;;;18.70;51.00;;;;;;5032539;28;20939;-47
2022/02/28 06:56:24;;;;;;;32.70;31.20;;;18.80;50.90;;;;;;5032741;28;20866;-44
2022/02/28 06:58:51;;;;;;;35.43;33.63;;;18.80;50.80;;;;;;5032406;28;21005;-44
2022/02/28 07:01:18;;;;;;;38.77;37.07;;;18.80;50.60;;;;;;5033154;28;20460;-45
2022/02/28 07:03:45;;;;;;;38.07;36.23;;;18.80;50.40;;;;;;5032493;28;20450;-48
2022/02/28 07:06:13;;;;;;;34.70;33.10;;;18.80;50.30;;;;;;5032628;28;20445;-44
2022/02/28 07:08:40;;;;;;;34.77;33.17;;;18.70;50.10;;;;;;5032038;28;20453;-43
2022/02/28 07:11:07;;;;;;;34.50;33.00;;;18.70;50.00;;;;;;5032281;28;21163;-43
2022/02/28 07:13:35;;;;;;;35.03;33.40;;;18.70;49.90;;;;;;5032250;28;20448;-43
2022/02/28 07:16:02;;;;;;;29.57;28.07;;;18.70;49.80;;;;;;5032099;28;20492;-44
2022/02/28 07:18:29;;;;;;;31.53;30.03;;;18.70;49.80;;;;;;5031984;28;20803;-44
2022/02/28 07:20:56;;;;;;;31.93;30.40;;;18.70;49.70;;;;;;5032083;28;20951;-43
2022/02/28 07:23:23;;;;;;;29.70;28.40;;;18.70;49.60;;;;;;5032087;28;20449;-46
2022/02/28 07:25:50;;;;;;;32.97;31.37;;;18.70;49.60;;;;;;5032005;28;20441;-47
2022/02/28 07:28:16;;;;;;;36.63;35.03;;;18.70;49.50;;;;;;5031885;28;20445;-45
2022/02/28 07:30:45;;;;;;;36.60;35.10;;;18.70;49.50;;;;;;5031842;28;20470;-44
2022/02/28 07:33:11;;;;;;;34.27;32.77;;;18.70;49.40;;;;;;5032123;28;20789;-46
2022/02/28 07:35:38;;;;;;;35.83;34.43;;;18.60;49.30;;;;;;5031895;28;20484;-45
2022/02/28 07:38:05;;;;;;;31.93;30.17;;;18.60;49.30;;;;;;5031647;28;20453;-45
2022/02/28 07:40:31;;;;;;;36.90;35.30;;;18.60;49.20;;;;;;5031723;28;20469;-46
2022/02/28 07:42:58;;;;;;;31.77;30.47;;;18.60;49.30;;;;;;5031891;28;20950;-44
2022/02/28 07:45:25;;;;;;;34.20;32.60;;;18.50;49.20;;;;;;5032145;28;20441;-45
2022/02/28 07:47:53;;;;;;;35.20;33.70;;;18.50;49.10;;;;;;5031318;28;20449;-44
2022/02/28 07:50:21;;;;;;;33.10;31.60;;;18.50;49.10;;;;;;5031443;28;20858;-45
2022/02/28 07:52:47;;;;;;;33.23;31.83;;;18.50;49.10;;;;;;5031268;28;20453;-45
2022/02/28 07:55:14;;;;;;;32.87;31.37;;;18.50;49.10;;;;;;5031643;28;20869;-45
2022/02/28 07:57:41;;;;;;;30.80;29.53;;;18.50;49.10;;;;;;5031580;28;20815;-45
2022/02/28 08:00:09;;;;;;;31.60;30.20;;;18.40;49.00;;;;;;5031743;28;20679;-50
2022/02/28 08:02:36;;;;;;;37.47;35.87;;;18.40;49.00;;;;;;5031626;28;20807;-46
2022/02/28 08:05:05;;;;;;;32.50;31.20;;;18.40;49.00;;;;;;5031555;28;20463;-46
2022/02/28 08:07:32;;;;;;;31.50;30.20;;;18.30;48.90;;;;;;5031721;28;20445;-44
2022/02/28 08:09:59;;;;;;;31.37;30.07;;;18.30;49.00;;;;;;5031418;28;20477;-45
2022/02/28 08:12:25;;;;;;;30.90;29.60;;;18.30;49.00;;;;;;5031510;28;20453;-45
2022/02/28 08:14:52;;;;;;;33.40;31.97;;;18.30;49.00;;;;;;5031643;28;20942;-44
2022/02/28 08:17:19;;;;;;;33.47;32.07;;;18.20;49.00;;;;;;5031325;28;20496;-48
2022/02/28 08:19:46;;;;;;;33.80;32.40;;;18.20;48.90;;;;;;5031299;28;20465;-44
2022/02/28 08:22:14;;;;;;;30.50;29.10;;;18.20;49.00;;;;;;5031418;28;20476;-47
2022/02/28 08:24:41;;;;;;;29.40;28.10;;;18.20;49.00;;;;;;5031372;28;20445;-45
2022/02/28 08:27:08;;;;;;;29.40;28.10;;;18.10;49.00;;;;;;5031734;28;20445;-46
2022/02/28 08:29:34;;;;;;;29.60;28.23;;;18.10;49.00;;;;;;5031119;28;20832;-45
2022/02/28 08:32:01;;;;;;;30.43;29.13;;;18.10;49.00;;;;;;5031314;28;20456;-47
2022/02/28 08:34:28;;;;;;;33.47;31.97;;;18.10;49.00;;;;;;5031232;28;20453;-45
2022/02/28 08:36:55;;;;;;;37.10;35.50;;;18.10;49.00;;;;;;5031288;28;20839;-45
2022/02/28 08:39:23;;;;;;;33.37;31.97;;;18.00;48.90;;;;;;5030907;28;20476;-45
2022/02/28 08:41:49;;;;;;;35.33;33.93;;;18.00;49.00;;;;;;5031187;28;20927;-45
2022/02/28 08:44:16;;;;;;;32.77;31.37;;;18.00;49.00;;;;;;5031238;28;20480;-43
2022/02/28 08:46:43;;;;;;;31.10;29.63;;;18.00;49.00;;;;;;5031175;28;20441;-46
2022/02/28 08:49:10;;;;;;;31.27;29.97;;;17.90;48.90;;;;;;5030939;28;20469;-44
2022/02/28 08:51:37;;;;;;;35.40;33.90;;;17.90;48.90;;;;;;5031160;28;20445;-47
2022/02/28 08:54:04;;;;;;;35.93;34.43;;;17.90;48.90;;;;;;5031068;28;20456;-48
2022/02/28 08:56:32;;;;;;;34.93;33.30;;;17.90;48.90;;;;;;5031308;28;20485;-44
2022/02/28 08:58:59;;;;;;;34.43;33.03;;;17.90;48.90;;;;;;5030906;28;20488;-44
2022/02/28 09:01:26;;;;;;;32.13;30.83;;;17.90;48.90;;;;;;5030980;28;20472;-45
2022/02/28 09:03:53;;;;;;;34.47;33.00;;;17.90;48.80;;;;;;5034242;28;20803;-44
2022/02/28 09:06:19;;;;;;;32.77;31.37;;;17.90;48.80;;;;;;5034587;28;20437;-43
2022/02/28 09:08:46;;;;;;;35.17;33.63;;;17.90;48.80;;;;;;5034215;28;20843;-43
2022/02/28 09:11:14;;;;;;;36.23;34.63;;;17.80;48.80;;;;;;5034616;28;20445;-43
2022/02/28 09:13:42;;;;;;;37.00;35.40;;;17.80;48.90;;;;;;5034740;28;20809;-43
2022/02/28 09:16:09;;;;;;;38.57;36.97;;;17.80;49.00;;;;;;5034363;28;20485;-46
2022/02/28 09:18:36;;;;;;;32.33;31.03;;;17.70;49.00;;;;;;5034170;28;20940;-43
2022/02/28 09:21:03;;;;;;;36.97;35.47;;;17.70;49.00;;;;;;5034369;28;20450;-43
2022/02/28 09:23:30;;;;;;;34.30;32.80;;;17.70;49.00;;;;;;5035069;28;20811;-44
2022/02/28 09:25:56;;;;;;;33.17;31.77;;;17.70;49.00;;;;;;5034276;28;20449;-45
2022/02/28 09:28:24;;;;;;;30.73;29.33;;;17.70;49.10;;;;;;5034102;28;20448;-43
2022/02/28 09:30:54;;;;;;;29.80;28.60;;;17.60;49.00;;;;;;5034234;28;20449;-48
2022/02/28 09:33:21;;;;;;;30.03;28.83;;;17.60;49.10;;;;;;5034072;28;20449;-44
2022/02/28 09:35:48;;;;;;;34.50;33.10;;;17.60;49.10;;;;;;5034133;28;20452;-44
2022/02/28 09:38:16;;;;;;;31.37;30.07;;;17.60;49.10;;;;;;5034068;28;20445;-43
2022/02/28 09:40:46;;;;;;;34.37;32.87;;;17.60;49.10;;;;;;5034031;28;20465;-44
2022/02/28 09:43:13;;;;;;;36.20;34.70;;;17.60;49.10;;;;;;5034012;28;20879;-45
2022/02/28 09:45:40;;;;;;;37.27;35.67;;;17.60;49.10;;;;;;5033955;28;20947;-46
2022/02/28 09:48:10;;;;;;;32.83;31.43;;;17.60;49.10;;;;;;5033664;28;20453;-44
2022/02/28 09:50:37;;;;;;;29.50;28.10;;;17.60;49.10;;;;;;5034030;28;20472;-43
2022/02/28 09:53:06;;;;;;;28.80;27.60;;;17.60;49.10;;;;;;5033911;28;20461;-46
2022/02/28 09:55:33;;;;;;;31.13;29.73;;;17.50;49.10;;;;;;5033878;28;20449;-47
2022/02/28 09:58:00;;;;;;;28.50;27.30;;;17.50;49.00;;;;;;5033403;28;20851;-47
2022/02/28 10:00:27;;;;;;;27.47;26.27;;;17.50;49.00;;;;;;5033402;28;20477;-46
2022/02/28 10:02:56;;;;;;;32.20;30.50;;;17.50;49.00;;;;;;5033867;28;20452;-45
2022/02/28 10:05:25;;;;;;;32.53;31.10;;;17.50;49.00;;;;;;5033506;28;20449;-45
2022/02/28 10:07:53;;;;;;;27.43;26.27;;;17.60;49.10;;;;;;5033451;28;20803;-44
2022/02/28 10:10:21;;;;;;;28.50;27.30;;;17.50;48.90;;;;;;5033571;28;20465;-46
2022/02/28 10:12:49;;;;;;;28.57;27.17;;;17.50;48.80;;;;;;5033578;28;20795;-45
2022/02/28 10:15:18;;;;;;;31.43;30.03;;;17.60;48.80;;;;;;5032788;28;20537;-44
2022/02/28 10:17:48;;;;;;;34.70;33.20;;;17.60;48.80;;;;;;5033137;28;21029;-45
2022/02/28 10:20:17;;;;;;;31.30;29.90;;;17.60;48.80;;;;;;5033353;28;20469;-44
2022/02/28 10:22:45;;;;;;;30.90;29.60;;;17.60;48.80;;;;;;5033163;28;20449;-44
2022/02/28 10:25:29;;;;;;;32.50;31.10;;;17.60;48.70;;;;;;5033112;28;20915;-44
2022/02/28 10:28:24;;;;;;;32.33;30.93;;;17.60;48.60;;;;;;5032896;28;20445;-44
2022/02/28 10:30:57;;;;;;;28.93;27.73;;;17.60;48.50;;;;;;5009464;28;21018;-43
2022/02/28 10:33:29;;;;;;;30.50;29.20;;;17.60;48.50;;;;;;5033008;28;20939;-47
2022/02/28 10:36:10;;;;;;;33.13;31.73;;;17.60;48.40;;;;;;5033124;28;20807;-46
2022/02/28 10:38:43;;;;;;;35.30;33.70;;;17.60;48.30;;;;;;5032698;28;20449;-45
2022/02/28 10:41:20;;;;;;;33.00;31.50;;;17.60;48.40;;;;;;5032896;28;20954;-47
2022/02/28 10:43:48;;;;;;;34.80;33.30;;;17.60;48.30;;;;;;5032833;28;20929;-45
2022/02/28 10:46:18;;;;;;;33.97;32.57;;;17.70;48.40;;;;;;5032736;28;20456;-44
2022/02/28 10:48:56;;;;;;;30.30;29.00;;;17.70;48.30;;;;;;5032648;28;20480;-45
2022/02/28 10:51:23;;;;;;;29.83;28.53;;;17.70;48.20;;;;;;5031823;28;20947;-45
2022/02/28 10:54:08;;;;;;;32.23;30.83;;;17.80;48.20;;;;;;5032552;28;20451;-46
2022/02/28 10:56:53;;;;;;;28.07;26.87;;;17.90;48.10;;;;;;5032501;28;20847;-46
2022/02/28 10:59:21;;;;;;;27.58;26.38;;;17.90;48.10;;;;;;5030891;28;20446;-45
2022/02/28 11:01:49;;;;;;;28.93;27.63;;;18.10;48.50;;;;;;5032452;28;20576;-45
2022/02/28 11:04:15;;;;;;;33.43;31.87;;;18.20;48.30;;;;;;5032325;28;20460;-45
2022/02/28 11:06:47;;;;;;;26.93;25.83;;;18.30;48.30;;;;;;5032345;28;20442;-47
2022/02/28 11:09:29;;;;;;;28.13;26.93;;;18.40;48.30;;;;;;5032316;28;20465;-47
2022/02/28 11:12:00;;;;;;;29.30;28.10;;;18.40;48.30;;;;;;5032351;28;20445;-44
2022/02/28 11:14:27;;;;;;;32.20;30.60;;;18.50;48.40;;;;;;5032328;28;20446;-46
2022/02/28 11:16:54;;;;;;;31.43;30.07;;;18.50;48.30;;;;;;5032104;28;20508;-47
2022/02/28 11:19:21;;;;;;;30.20;28.70;;;18.50;48.20;;;;;;5031850;28;21003;-47
2022/02/28 11:21:48;;;;;;;28.70;27.50;;;18.60;48.20;;;;;;5032264;28;20469;-45
2022/02/28 11:24:16;;;;;;;28.43;27.13;;;18.70;48.00;;;;;;5032962;28;20449;-45
2022/02/28 11:26:43;;;;;;;30.50;29.10;;;18.70;47.80;;;;;;5031362;28;20448;-45
2022/02/28 11:29:10;;;;;;;31.37;29.90;;;18.80;47.70;;;;;;5031706;28;20816;-45
2022/02/28 11:31:37;;;;;;;33.00;31.60;;;18.90;47.50;;;;;;5032302;28;20464;-50
2022/02/28 11:34:06;;;;;;;32.37;30.97;;;19.00;47.40;;;;;;5032179;28;20454;-43
2022/02/28 11:36:50;;;;;;;37.60;36.00;;;19.20;47.30;;;;;;5031710;28;20445;-45
2022/02/28 11:39:18;;;;;;;33.10;31.70;;;19.30;47.00;;;;;;5031897;28;20472;-44
2022/02/28 11:41:44;;;;;;;34.87;33.37;;;19.50;46.80;;;;;;5031631;28;20455;-45
2022/02/28 11:44:12;;;;;;;29.00;27.80;;;19.80;46.60;;;;;;5031123;28;20437;-45
2022/02/28 11:46:40;;;;;;;32.60;31.00;;;20.30;46.20;;;;;;5031356;28;20453;-44
2022/02/28 11:49:09;;;;;;;34.10;32.60;;;21.30;45.50;;;;;;5031496;28;21009;-47
2022/02/28 11:51:39;;;;;;;34.33;32.83;;;23.10;43.70;;;;;;5031751;28;20457;-44
2022/02/28 11:54:08;;;;;;;34.53;33.13;;;24.50;41.00;;;;;;5031576;28;20449;-44
2022/02/28 11:56:55;;;;;;;34.30;32.80;;;25.50;38.80;;;;;;5031587;28;20994;-44
2022/02/28 11:59:24;;;;;;;35.33;33.83;;;26.50;36.90;;;;;;5031248;28;20526;-45
2022/02/28 12:01:54;;;;;;;31.13;29.73;;;27.00;35.60;;;;;;5031444;28;20488;-44
2022/02/28 12:04:22;;;;;;;33.03;31.57;;;27.10;34.70;;;;;;5031606;28;20450;-44
2022/02/28 12:06:51;;;;;;;31.70;30.30;;;27.00;34.30;;;;;;5031553;28;20819;-45
2022/02/28 12:09:38;;;;;;;31.07;29.77;;;26.80;34.00;;;;;;5031301;28;20461;-44
2022/02/28 12:12:17;;;;;;;27.40;26.20;;;26.80;34.10;;;;;;5031329;28;20454;-46
2022/02/28 12:15:09;;;;;;;32.30;30.90;;;27.20;34.00;;;;;;5031448;28;20444;-46
2022/02/28 12:17:55;;;;;;;39.00;37.40;;;27.60;33.30;;;;;;5031391;28;20852;-47
2022/02/28 12:20:26;;;;;;;36.20;34.60;;;27.50;32.90;;;;;;5031302;28;20473;-44
2022/02/28 12:23:15;;;;;;;35.63;34.13;;;27.60;32.90;;;;;;5031648;28;20453;-46
2022/02/28 12:25:44;;;;;;;32.77;31.37;;;27.70;32.60;;;;;;5031524;28;20477;-43
2022/02/28 12:28:22;;;;;;;34.40;32.90;;;27.60;32.50;;;;;;5031645;28;20441;-47
2022/02/28 12:30:52;;;;;;;32.43;31.03;;;27.80;32.40;;;;;;5031208;28;20448;-45
2022/02/28 12:33:20;;;;;;;33.03;31.63;;;27.50;32.30;;;;;;5031252;28;20866;-44